Time;durP1;ratioP1;P1;durP2;ratioP2;P2;SDS_P1;SDS_P2;PMS_P1;PMS_P2;Temp;Humidity;BMP_temperature;BMP_pressure;BME280_temperature;BME280_humidity;BME280_pressure;Samples;Min_cycle;Max_cycle;Signal;HPM_P1;HPM_P2
2021/12/05 00:22:47;;;;;;;10.00;3.08;;;3.50;99.90;;;;;;4944412;28;20038;-82
2021/12/05 00:25:21;;;;;;;12.90;2.08;;;3.50;99.90;;;;;;4984607;28;20030;-81
2021/12/05 00:28:04;;;;;;;7.97;1.10;;;3.50;99.90;;;;;;4985059;28;20198;-81
2021/12/05 00:30:58;;;;;;;11.35;2.80;;;3.50;99.90;;;;;;5044386;28;20510;-81
2021/12/05 00:49:29;;;;;;;5.22;1.48;;;3.30;99.90;;;;;;5048053;28;20056;-81
2021/12/05 00:57:29;;;;;;;9.48;2.35;;;3.20;99.90;;;;;;5047808;28;20041;-81
2021/12/05 01:00:24;;;;;;;15.00;3.97;;;3.20;99.90;;;;;;5047695;28;20112;-81
2021/12/05 01:05:45;;;;;;;10.63;3.20;;;3.10;99.90;;;;;;5047796;28;20037;-81
2021/12/05 01:08:24;;;;;;;9.23;2.95;;;3.10;99.90;;;;;;5047371;28;20036;-81
2021/12/05 01:11:15;;;;;;;12.95;4.53;;;3.00;99.90;;;;;;5047552;28;20033;-81
2021/12/05 01:16:13;;;;;;;9.35;3.38;;;3.00;99.90;;;;;;5047582;28;20025;-81
2021/12/05 01:18:40;;;;;;;12.50;3.70;;;3.00;99.90;;;;;;5023080;28;20018;-81
2021/12/05 01:21:14;;;;;;;6.20;2.47;;;3.00;99.90;;;;;;5011480;28;20072;-81
2021/12/05 01:27:00;;;;;;;9.80;2.50;;;3.10;99.90;;;;;;5027391;28;20034;-81
2021/12/05 01:29:13;;;;;;;8.40;2.40;;;3.10;99.90;;;;;;5025391;28;20053;-82
2021/12/05 01:31:53;;;;;;;4.25;1.00;;;3.10;99.90;;;;;;5011124;28;20026;-81
2021/12/05 01:37:23;;;;;;;9.90;1.42;;;3.00;99.90;;;;;;5027058;28;20033;-82
2021/12/05 02:38:49;;;;;;;11.98;1.50;;;3.30;99.90;;;;;;4948882;29;20023;-81
2021/12/05 02:41:16;;;;;;;8.52;1.00;;;3.30;99.90;;;;;;4948796;29;20036;-81
2021/12/05 02:43:46;;;;;;;9.38;1.58;;;3.30;99.90;;;;;;4964949;29;20035;-81
2021/12/05 02:46:20;;;;;;;11.93;1.38;;;3.30;99.90;;;;;;4932835;29;20043;-81
2021/12/05 02:48:46;;;;;;;11.18;1.65;;;3.40;99.90;;;;;;4932651;29;20032;-82
2021/12/05 02:51:24;;;;;;;9.43;1.10;;;3.30;99.90;;;;;;4932841;29;20046;-82
2021/12/05 02:54:03;;;;;;;9.38;1.23;;;3.40;99.90;;;;;;4932488;29;20066;-81
2021/12/05 02:56:33;;;;;;;12.45;1.48;;;3.30;99.90;;;;;;4932681;29;20024;-81
2021/12/05 02:59:07;;;;;;;14.13;1.08;;;3.30;99.90;;;;;;4932281;29;20044;-81
2021/12/05 03:01:44;;;;;;;5.97;0.80;;;3.30;99.90;;;;;;4932404;29;20123;-81
2021/12/05 03:04:10;;;;;;;7.18;0.88;;;3.30;99.90;;;;;;4932331;29;20034;-81
2021/12/05 03:06:38;;;;;;;11.77;1.05;;;3.30;99.90;;;;;;4932300;29;20412;-81
2021/12/05 03:09:08;;;;;;;7.35;0.68;;;3.30;99.90;;;;;;4934548;29;20051;-82
2021/12/05 03:11:34;;;;;;;8.18;0.77;;;3.30;99.90;;;;;;4967255;29;20102;-82
2021/12/05 03:13:59;;;;;;;7.00;0.60;;;3.20;99.90;;;;;;4967181;29;20046;-81
2021/12/05 03:16:30;;;;;;;13.75;0.98;;;3.20;99.90;;;;;;4951155;29;20042;-81
2021/12/05 03:18:55;;;;;;;7.57;0.80;;;3.10;99.90;;;;;;4967077;29;20039;-81
2021/12/05 03:21:22;;;;;;;6.95;0.60;;;3.10;99.90;;;;;;4967156;29;20031;-82
2021/12/05 03:23:50;;;;;;;4.60;0.50;;;3.00;99.90;;;;;;4951151;29;20050;-82
2021/12/05 03:26:20;;;;;;;10.75;1.42;;;3.00;99.90;;;;;;4951046;29;20027;-82
2021/12/05 03:28:49;;;;;;;8.57;0.73;;;3.00;99.90;;;;;;4950923;29;20031;-83
2021/12/05 03:31:17;;;;;;;6.63;0.52;;;3.00;99.90;;;;;;4950938;29;20032;-82
2021/12/05 03:33:43;;;;;;;9.75;0.88;;;2.90;99.90;;;;;;4950829;29;20111;-82
2021/12/05 03:36:11;;;;;;;7.15;0.63;;;2.90;99.90;;;;;;4950930;29;20038;-83
2021/12/05 03:38:39;;;;;;;6.07;0.50;;;2.90;99.90;;;;;;4950708;29;20031;-83
2021/12/05 03:41:11;;;;;;;6.38;0.70;;;2.90;99.90;;;;;;4950840;29;20035;-82
2021/12/05 03:43:40;;;;;;;4.93;0.57;;;2.80;99.90;;;;;;4950759;29;20034;-82
2021/12/05 03:46:08;;;;;;;6.40;0.73;;;2.80;99.90;;;;;;4966771;29;20058;-83
2021/12/05 03:48:41;;;;;;;8.60;0.70;;;2.80;99.90;;;;;;4967841;29;20027;-83
2021/12/05 03:51:09;;;;;;;10.60;0.55;;;2.80;99.90;;;;;;4950795;29;20086;-82
2021/12/05 03:53:36;;;;;;;5.68;0.63;;;2.80;99.90;;;;;;4950631;29;20078;-83
2021/12/05 03:56:08;;;;;;;8.50;1.02;;;2.80;99.90;;;;;;4950537;29;20094;-82
2021/12/05 03:58:34;;;;;;;8.70;0.80;;;2.90;99.90;;;;;;4950472;29;20031;-81
2021/12/05 04:01:02;;;;;;;6.70;0.60;;;2.80;99.90;;;;;;4950608;29;20035;-81
2021/12/05 04:03:29;;;;;;;5.90;0.50;;;2.80;99.90;;;;;;4950588;29;20035;-82
2021/12/05 04:05:58;;;;;;;6.32;0.63;;;2.90;99.90;;;;;;4967840;29;20070;-82
2021/12/05 04:08:29;;;;;;;10.75;0.63;;;2.90;99.90;;;;;;4950965;29;20067;-81
2021/12/05 04:11:02;;;;;;;10.52;0.85;;;3.00;99.90;;;;;;4966241;29;20051;-82
2021/12/05 04:13:31;;;;;;;5.72;0.93;;;3.00;99.90;;;;;;4982449;28;20031;-82
2021/12/05 04:16:00;;;;;;;5.57;0.70;;;3.10;99.90;;;;;;4950175;29;20035;-81
2021/12/05 04:18:28;;;;;;;6.05;0.93;;;3.10;99.90;;;;;;4960324;29;20465;-82
2021/12/05 04:20:56;;;;;;;9.25;1.02;;;3.10;99.90;;;;;;4915464;29;20107;-82
2021/12/05 04:23:23;;;;;;;4.40;0.82;;;3.10;99.90;;;;;;4934207;29;20464;-82
2021/12/05 04:25:51;;;;;;;8.50;1.25;;;3.20;99.90;;;;;;4950367;29;20126;-83
2021/12/05 04:28:19;;;;;;;9.20;0.93;;;3.20;99.90;;;;;;4950199;29;20031;-82
2021/12/05 04:30:46;;;;;;;4.40;0.70;;;3.20;99.90;;;;;;4950146;29;20476;-82
2021/12/05 04:33:13;;;;;;;6.25;0.90;;;3.20;99.90;;;;;;4950324;29;20119;-82
2021/12/05 04:35:39;;;;;;;6.22;0.90;;;3.20;99.90;;;;;;4950170;29;20066;-81
2021/12/05 04:38:05;;;;;;;5.70;1.02;;;3.30;99.90;;;;;;4949971;29;20098;-82
2021/12/05 04:40:33;;;;;;;9.90;1.23;;;3.30;99.90;;;;;;4950111;29;20484;-82
2021/12/05 04:43:02;;;;;;;8.98;1.00;;;3.30;99.90;;;;;;4950493;29;20024;-82
2021/12/05 04:45:30;;;;;;;11.15;1.25;;;3.30;99.90;;;;;;4950077;29;20035;-81
2021/12/05 04:48:01;;;;;;;6.05;1.27;;;3.30;99.90;;;;;;4950491;29;20075;-82
2021/12/05 04:50:29;;;;;;;6.63;0.77;;;3.30;99.90;;;;;;4950134;29;20059;-82
2021/12/05 04:52:55;;;;;;;4.65;0.68;;;3.30;99.90;;;;;;4950025;29;20039;-82
2021/12/05 04:55:21;;;;;;;5.70;0.85;;;3.30;99.90;;;;;;4949927;29;20043;-83
2021/12/05 04:57:48;;;;;;;6.93;0.88;;;3.30;99.90;;;;;;4950053;29;20063;-82
2021/12/05 05:00:28;;;;;;;7.97;1.05;;;3.30;99.90;;;;;;4949773;29;20035;-81
2021/12/05 05:02:54;;;;;;;5.75;1.02;;;3.30;99.90;;;;;;4949908;29;20042;-82
2021/12/05 05:05:20;;;;;;;8.65;1.05;;;3.30;99.90;;;;;;4950011;29;20215;-81
2021/12/05 05:07:47;;;;;;;5.43;0.80;;;3.30;99.90;;;;;;4933640;29;20031;-80
2021/12/05 05:10:16;;;;;;;6.68;0.88;;;3.30;99.90;;;;;;4945403;29;20058;-82
2021/12/05 05:12:42;;;;;;;5.25;0.70;;;3.40;99.90;;;;;;4946444;29;20393;-81
2021/12/05 05:15:10;;;;;;;6.88;0.70;;;3.30;99.90;;;;;;4962348;29;20047;-82
2021/12/05 05:17:37;;;;;;;6.53;0.85;;;3.40;99.90;;;;;;4946371;29;20047;-81
2021/12/05 05:20:12;;;;;;;6.35;0.70;;;3.40;99.90;;;;;;4943167;29;20461;-81
2021/12/05 05:23:15;;;;;;;4.60;0.77;;;3.40;99.90;;;;;;4927339;29;20042;-82
2021/12/05 05:28:35;;;;;;;4.38;0.90;;;3.40;99.90;;;;;;4928465;29;20036;-81
2021/12/05 05:39:12;;;;;;;6.55;0.65;;;3.40;99.90;;;;;;4927149;29;20158;-81
2021/12/05 05:42:11;;;;;;;5.18;0.90;;;3.50;99.90;;;;;;4946393;29;20044;-81
2021/12/05 05:47:36;;;;;;;5.35;0.88;;;3.50;99.90;;;;;;4936675;29;20040;-82
2021/12/05 05:50:04;;;;;;;4.97;0.77;;;3.50;99.90;;;;;;4930509;29;20035;-81
2021/12/05 05:52:31;;;;;;;6.47;0.70;;;3.50;99.90;;;;;;4930344;29;20040;-81
2021/12/05 05:54:59;;;;;;;8.80;1.75;;;3.50;99.90;;;;;;4930429;29;20044;-81
2021/12/05 05:57:30;;;;;;;4.20;0.80;;;3.50;99.90;;;;;;4930100;29;20528;-82
2021/12/05 06:00:05;;;;;;;5.03;1.00;;;3.50;99.90;;;;;;4930223;29;20508;-81
2021/12/05 06:05:24;;;;;;;6.65;0.93;;;3.50;99.90;;;;;;4946051;29;20029;-81
2021/12/05 06:08:10;;;;;;;3.13;0.88;;;3.50;99.90;;;;;;4929847;29;20354;-82
2021/12/05 06:10:36;;;;;;;2.15;0.70;;;3.50;99.90;;;;;;4909523;29;20087;-82
2021/12/05 06:13:02;;;;;;;2.17;0.60;;;3.60;99.90;;;;;;4929009;29;20048;-82
2021/12/05 06:15:29;;;;;;;3.25;0.73;;;3.60;99.90;;;;;;4928904;29;20060;-82
2021/12/05 06:17:55;;;;;;;6.13;0.65;;;3.60;99.90;;;;;;4926984;29;20586;-82
2021/12/05 06:20:25;;;;;;;3.03;0.93;;;3.60;99.90;;;;;;4894601;29;20047;-82
2021/12/05 06:22:52;;;;;;;3.00;1.15;;;3.60;99.90;;;;;;4894204;29;20045;-81
2021/12/05 06:25:23;;;;;;;6.80;1.48;;;3.60;99.90;;;;;;4910008;29;20064;-81
2021/12/05 06:27:51;;;;;;;6.15;1.08;;;3.60;99.90;;;;;;4894130;29;20084;-82
2021/12/05 06:30:36;;;;;;;3.75;0.95;;;3.60;99.90;;;;;;4894431;29;20119;-81
2021/12/05 06:41:21;;;;;;;3.13;0.70;;;3.60;99.90;;;;;;4928434;29;20139;-83
2021/12/05 06:46:30;;;;;;;4.05;0.70;;;3.60;99.90;;;;;;4928107;29;20535;-83
2021/12/05 06:48:56;;;;;;;6.85;1.00;;;3.70;99.90;;;;;;4948589;29;20031;-82
2021/12/05 06:51:28;;;;;;;2.78;0.60;;;3.60;99.90;;;;;;4948329;29;20036;-82
2021/12/05 06:53:55;;;;;;;2.00;0.60;;;3.70;99.90;;;;;;4932374;29;20043;-82
2021/12/05 06:56:21;;;;;;;4.82;0.60;;;3.70;99.90;;;;;;4932453;29;20031;-82
2021/12/05 06:58:48;;;;;;;7.05;0.88;;;3.70;99.90;;;;;;4947932;29;20031;-82
2021/12/05 07:01:14;;;;;;;3.88;0.70;;;3.70;99.90;;;;;;4932273;29;20496;-81
2021/12/05 07:03:43;;;;;;;5.25;0.50;;;3.70;99.90;;;;;;4932169;29;20036;-81
2021/12/05 07:06:24;;;;;;;3.63;0.60;;;3.70;99.90;;;;;;4932136;29;20032;-82
2021/12/05 07:08:52;;;;;;;5.60;0.85;;;3.70;99.90;;;;;;4933199;29;20035;-82
2021/12/05 07:11:26;;;;;;;2.95;0.68;;;3.70;99.90;;;;;;4968191;29;20039;-81
2021/12/05 07:14:30;;;;;;;3.03;0.73;;;3.70;99.90;;;;;;4950508;29;20050;-81
2021/12/05 07:19:35;;;;;;;3.53;0.52;;;3.70;99.90;;;;;;4960844;29;20436;-82
2021/12/05 07:22:14;;;;;;;1.70;0.40;;;3.70;99.90;;;;;;4962228;29;20401;-82
2021/12/05 07:40:47;;;;;;;4.68;1.25;;;3.70;99.90;;;;;;4966691;29;20046;-82
2021/12/05 07:43:14;;;;;;;1.40;0.40;;;3.70;99.90;;;;;;4966275;29;20103;-82
2021/12/05 07:45:43;;;;;;;2.35;0.55;;;3.70;99.90;;;;;;4966305;29;20032;-82
2021/12/05 07:48:15;;;;;;;2.00;0.50;;;3.70;99.90;;;;;;4966084;29;20054;-81
2021/12/05 07:50:51;;;;;;;2.90;0.60;;;3.60;99.90;;;;;;4966488;29;20035;-83
2021/12/05 07:53:29;;;;;;;2.17;0.50;;;3.60;99.90;;;;;;4966054;29;20039;-81
2021/12/05 07:56:00;;;;;;;3.35;0.65;;;3.60;99.90;;;;;;4965890;28;20472;-80
2021/12/05 08:14:51;;;;;;;2.70;0.50;;;3.60;99.90;;;;;;4945809;29;20058;-81
2021/12/05 08:17:19;;;;;;;1.08;0.40;;;3.60;99.90;;;;;;4930102;29;20028;-81
2021/12/05 08:19:46;;;;;;;2.45;0.65;;;3.60;99.90;;;;;;4929890;29;20106;-81
2021/12/05 08:22:12;;;;;;;1.40;0.60;;;3.60;99.90;;;;;;4921005;29;20069;-81
2021/12/05 08:24:40;;;;;;;1.10;0.50;;;3.60;99.90;;;;;;4911213;29;20043;-79
2021/12/05 08:27:08;;;;;;;1.38;0.50;;;3.60;99.90;;;;;;4910942;29;20044;-81
2021/12/05 08:29:45;;;;;;;1.52;0.50;;;3.60;99.90;;;;;;4910515;29;20071;-80
2021/12/05 08:35:37;;;;;;;1.50;0.50;;;3.60;99.90;;;;;;4925928;29;20091;-80
2021/12/05 08:38:11;;;;;;;1.33;0.40;;;3.60;99.90;;;;;;4920723;29;20163;-83
2021/12/05 08:46:08;;;;;;;1.95;0.43;;;3.70;99.90;;;;;;4932847;29;20044;-82
2021/12/05 09:29:22;;;;;;;3.95;0.82;;;4.20;99.90;;;;;;4922868;29;20028;-81
2021/12/05 09:51:38;;;;;;;2.10;0.77;;;4.10;99.90;;;;;;4945463;29;20036;-81
2021/12/05 10:08:33;;;;;;;2.17;0.70;;;4.30;99.90;;;;;;4950948;29;20042;-84
2021/12/05 10:16:27;;;;;;;1.98;0.75;;;4.20;99.90;;;;;;4927520;29;20051;-87
2021/12/05 10:19:21;;;;;;;1.55;0.80;;;4.30;99.90;;;;;;4900369;29;20053;-86
2021/12/05 10:35:50;;;;;;;2.97;0.77;;;4.60;99.90;;;;;;4910851;29;20044;-87
2021/12/05 10:38:23;;;;;;;1.98;0.88;;;4.70;99.90;;;;;;4890444;29;20037;-86
2021/12/05 10:41:02;;;;;;;1.83;0.65;;;4.80;99.90;;;;;;4872744;29;20049;-84
2021/12/05 10:43:30;;;;;;;2.72;0.80;;;4.80;99.90;;;;;;4894766;29;20042;-83
2021/12/05 10:46:18;;;;;;;4.72;1.60;;;4.80;99.90;;;;;;4897471;29;20040;-84
2021/12/05 10:49:00;;;;;;;3.47;1.05;;;4.80;99.90;;;;;;4932657;29;20043;-85
2021/12/05 10:51:30;;;;;;;1.70;1.00;;;4.90;99.90;;;;;;4915028;29;20035;-84
2021/12/05 10:53:56;;;;;;;2.50;1.00;;;4.90;99.90;;;;;;4930420;29;20054;-82
2021/12/05 10:56:37;;;;;;;4.35;1.42;;;4.80;99.90;;;;;;4948203;29;20024;-82
2021/12/05 10:59:08;;;;;;;;;;;4.70;99.90;;;;;;4930697;29;20503;-84
2021/12/05 11:01:46;;;;;;;2.60;0.82;;;4.70;99.90;;;;;;4931553;29;20316;-85
2021/12/05 11:04:25;;;;;;;2.33;1.02;;;4.70;99.90;;;;;;4944072;29;20039;-86
2021/12/05 11:06:52;;;;;;;3.45;1.50;;;4.80;99.90;;;;;;4913692;29;20028;-84
2021/12/05 11:09:18;;;;;;;4.47;1.48;;;4.90;99.90;;;;;;4930550;29;20058;-86
2021/12/05 11:11:47;;;;;;;2.13;1.20;;;5.00;99.90;;;;;;4947309;29;20063;-82
2021/12/05 11:14:20;;;;;;;3.38;1.05;;;5.00;99.90;;;;;;4930252;29;20123;-80
2021/12/05 11:16:55;;;;;;;2.20;1.13;;;5.00;99.90;;;;;;4945453;29;20036;-82
2021/12/05 11:19:44;;;;;;;3.45;1.45;;;5.00;99.90;;;;;;4946017;29;20528;-83
2021/12/05 11:22:23;;;;;;;2.35;1.30;;;5.00;99.90;;;;;;4950448;29;20035;-82
2021/12/05 11:24:51;;;;;;;2.63;1.30;;;5.10;99.90;;;;;;4944244;29;20039;-82
2021/12/05 11:27:18;;;;;;;1.65;0.80;;;5.10;99.90;;;;;;4945557;29;20322;-81
2021/12/05 11:30:00;;;;;;;2.53;1.30;;;5.10;99.90;;;;;;4945906;29;20040;-81
2021/12/05 11:32:37;;;;;;;4.47;1.00;;;5.10;99.90;;;;;;4946824;29;20039;-82
2021/12/05 11:35:26;;;;;;;4.13;1.07;;;5.20;99.90;;;;;;4931164;29;20066;-82
2021/12/05 11:38:12;;;;;;;2.40;0.93;;;5.30;99.90;;;;;;4930752;29;20297;-86
2021/12/05 11:40:55;;;;;;;1.80;0.75;;;5.30;99.90;;;;;;4962871;29;20122;-82
2021/12/05 11:43:35;;;;;;;2.17;1.08;;;5.40;99.90;;;;;;4930685;29;20080;-83
2021/12/05 11:46:08;;;;;;;2.50;0.95;;;5.30;99.90;;;;;;4940564;29;20056;-83
2021/12/05 11:48:39;;;;;;;1.55;0.80;;;5.20;99.90;;;;;;4930733;29;20035;-83
2021/12/05 11:51:46;;;;;;;2.75;1.13;;;5.30;99.90;;;;;;4906611;29;20067;-82
2021/12/05 11:54:16;;;;;;;2.72;0.90;;;5.30;99.90;;;;;;4929426;29;20055;-83
2021/12/05 11:56:44;;;;;;;2.38;0.98;;;5.30;99.90;;;;;;4942826;29;20038;-86
2021/12/05 11:59:25;;;;;;;3.75;1.02;;;5.30;99.90;;;;;;4930087;29;20067;-87
2021/12/05 12:02:13;;;;;;;1.80;0.90;;;5.30;99.90;;;;;;4929277;29;20048;-84
2021/12/05 12:04:51;;;;;;;1.90;1.15;;;5.20;99.90;;;;;;4929177;29;20087;-83
2021/12/05 12:07:44;;;;;;;2.40;0.95;;;5.30;99.90;;;;;;4945246;29;20042;-84
2021/12/05 12:10:21;;;;;;;2.17;1.15;;;5.30;99.90;;;;;;4953595;28;20058;-83
2021/12/05 12:12:52;;;;;;;3.05;1.38;;;5.20;99.90;;;;;;4944201;29;20127;-85
2021/12/05 12:15:19;;;;;;;2.72;1.40;;;5.10;99.90;;;;;;4929426;29;20075;-84
2021/12/05 12:17:47;;;;;;;2.83;1.20;;;5.30;99.90;;;;;;4943942;29;20531;-84
2021/12/05 12:20:17;;;;;;;2.92;1.90;;;5.20;99.90;;;;;;4945508;29;20532;-83
2021/12/05 12:22:43;;;;;;;2.90;1.42;;;5.20;99.90;;;;;;4935079;29;20027;-82
2021/12/05 12:25:14;;;;;;;3.70;1.67;;;5.20;99.90;;;;;;4944934;29;20561;-85
2021/12/05 12:27:45;;;;;;;2.40;1.20;;;5.30;99.90;;;;;;4935730;29;20078;-87
2021/12/05 12:30:13;;;;;;;3.03;1.73;;;5.20;99.90;;;;;;4944659;29;20039;-84
2021/12/05 12:32:44;;;;;;;2.33;1.40;;;5.30;99.90;;;;;;4961397;28;20495;-83
2021/12/05 12:35:13;;;;;;;2.70;1.92;;;5.40;99.90;;;;;;4944918;29;20055;-84
2021/12/05 12:37:58;;;;;;;3.88;1.35;;;5.20;99.90;;;;;;4955380;29;20035;-85
2021/12/05 12:40:55;;;;;;;2.28;1.35;;;5.30;99.90;;;;;;4941717;29;20087;-84
2021/12/05 12:43:56;;;;;;;3.03;1.42;;;5.50;99.90;;;;;;4960015;29;20067;-81
2021/12/05 12:46:42;;;;;;;2.38;1.42;;;5.50;99.90;;;;;;4946648;29;20095;-80
2021/12/05 12:49:16;;;;;;;2.63;1.65;;;5.40;99.90;;;;;;4949108;29;20110;-81
2021/12/05 12:51:51;;;;;;;3.08;1.75;;;5.40;99.90;;;;;;4932758;28;20071;-81
2021/12/05 12:54:28;;;;;;;2.38;1.23;;;5.40;99.90;;;;;;4945560;29;20050;-81
2021/12/05 12:57:11;;;;;;;3.10;1.42;;;5.50;99.90;;;;;;4947993;29;20028;-81
2021/12/05 12:59:41;;;;;;;2.95;1.38;;;5.50;99.90;;;;;;4948622;29;20087;-82
2021/12/05 13:10:01;;;;;;;2.70;1.00;;;5.40;99.90;;;;;;4947070;29;20087;-82
2021/12/05 13:10:33;;;;;;;1.67;1.10;;;5.50;99.90;;;;;;4958166;29;20054;-83
2021/12/05 13:13:04;;;;;;;2.03;1.17;;;5.50;99.90;;;;;;4955381;29;20035;-82
2021/12/05 13:15:52;;;;;;;3.30;1.10;;;5.40;99.90;;;;;;4969000;29;20054;-80
2021/12/05 13:18:31;;;;;;;2.45;1.02;;;5.50;99.90;;;;;;4953955;29;20023;-82
2021/12/05 13:21:23;;;;;;;2.45;0.98;;;5.40;99.90;;;;;;4937287;29;20039;-78
2021/12/05 13:23:51;;;;;;;8.95;1.95;;;5.60;99.90;;;;;;4965679;29;20047;-86
2021/12/05 13:26:35;;;;;;;4.43;1.00;;;5.50;99.90;;;;;;4948202;29;20036;-75
2021/12/05 13:29:17;;;;;;;3.45;1.15;;;5.60;99.90;;;;;;4964041;29;20046;-87
2021/12/05 13:32:07;;;;;;;3.08;1.13;;;5.50;99.90;;;;;;4949409;29;20035;-86
2021/12/05 13:34:44;;;;;;;3.20;1.10;;;5.50;99.90;;;;;;4950718;29;20039;-87
2021/12/05 13:37:09;;;;;;;1.88;1.10;;;5.40;99.90;;;;;;4917679;29;20292;-86
2021/12/05 13:39:38;;;;;;;3.95;1.63;;;5.40;99.90;;;;;;4949279;29;20043;-91
2021/12/05 13:42:35;;;;;;;2.70;1.65;;;5.30;99.90;;;;;;4949293;29;20418;-86
2021/12/05 13:45:06;;;;;;;3.70;2.33;;;5.20;99.90;;;;;;4949329;29;20028;-86
2021/12/05 13:47:44;;;;;;;2.95;1.73;;;5.30;99.90;;;;;;4954849;29;20027;-86
2021/12/05 13:50:21;;;;;;;2.60;1.90;;;5.20;99.90;;;;;;4933274;29;20580;-87
2021/12/05 13:52:59;;;;;;;4.05;1.65;;;5.10;99.90;;;;;;4949203;29;20028;-88
2021/12/05 13:55:44;;;;;;;3.20;1.05;;;5.10;99.90;;;;;;4949347;29;20092;-87
2021/12/05 13:58:28;;;;;;;2.80;1.40;;;5.10;99.90;;;;;;4952815;29;20041;-87
2021/12/05 14:00:55;;;;;;;2.90;1.33;;;5.10;99.90;;;;;;4970003;29;20031;-86
2021/12/05 14:03:44;;;;;;;2.85;1.27;;;5.00;99.90;;;;;;4967864;29;20058;-87
2021/12/05 14:06:28;;;;;;;3.30;1.65;;;5.10;99.90;;;;;;4967828;29;20031;-87
2021/12/05 14:08:58;;;;;;;3.15;2.00;;;5.00;99.90;;;;;;4968211;29;20061;-87
2021/12/05 14:11:25;;;;;;;3.15;1.13;;;5.00;99.90;;;;;;4952982;29;20042;-87
2021/12/05 14:13:51;;;;;;;4.07;1.50;;;5.00;99.90;;;;;;4952850;29;20046;-87
2021/12/05 14:16:18;;;;;;;2.42;1.10;;;4.90;99.90;;;;;;4932674;28;20050;-87
2021/12/05 14:18:44;;;;;;;2.45;0.98;;;4.90;99.90;;;;;;4946436;29;20472;-86
2021/12/05 14:21:18;;;;;;;1.85;0.90;;;4.90;99.90;;;;;;4932154;29;20039;-86
2021/12/05 14:23:49;;;;;;;5.88;1.23;;;4.90;99.90;;;;;;4916169;29;20040;-86
2021/12/05 14:26:20;;;;;;;2.20;0.93;;;4.90;99.90;;;;;;4932547;29;20051;-87
2021/12/05 14:28:58;;;;;;;2.85;1.20;;;4.90;99.90;;;;;;4933149;29;20062;-87
2021/12/05 14:31:30;;;;;;;2.47;1.25;;;4.90;99.90;;;;;;4917025;29;20032;-87
2021/12/05 14:33:57;;;;;;;2.30;0.90;;;4.90;99.90;;;;;;4917233;29;20039;-87
2021/12/05 14:36:31;;;;;;;2.60;0.90;;;4.80;99.90;;;;;;4948571;29;20054;-87
2021/12/05 14:39:13;;;;;;;2.30;1.02;;;4.80;99.90;;;;;;4932645;29;20035;-87
2021/12/05 14:41:40;;;;;;;2.95;0.82;;;4.80;99.90;;;;;;4932591;29;20052;-87
2021/12/05 14:44:06;;;;;;;2.75;0.95;;;4.80;99.90;;;;;;4948187;29;20039;-87
2021/12/05 14:46:32;;;;;;;2.63;0.98;;;4.80;99.90;;;;;;4932525;29;20032;-87
2021/12/05 14:49:03;;;;;;;2.25;0.90;;;4.80;99.90;;;;;;4932733;29;20080;-87
2021/12/05 14:51:34;;;;;;;1.50;0.80;;;4.80;99.90;;;;;;4948130;29;20090;-87
2021/12/05 14:54:00;;;;;;;3.45;1.35;;;4.80;99.90;;;;;;4938629;29;20055;-87
2021/12/05 14:56:36;;;;;;;2.55;1.20;;;4.70;99.90;;;;;;4951883;29;20043;-87
2021/12/05 14:59:09;;;;;;;4.60;0.95;;;4.80;99.90;;;;;;4936269;29;20043;-87
2021/12/05 15:01:36;;;;;;;4.68;1.05;;;4.70;99.90;;;;;;4952044;29;20031;-87
2021/12/05 15:04:05;;;;;;;2.40;0.98;;;4.70;99.90;;;;;;4951998;28;20036;-87
2021/12/05 15:06:39;;;;;;;3.08;1.10;;;4.70;99.90;;;;;;4951130;29;20035;-87
2021/12/05 15:09:14;;;;;;;2.10;1.05;;;4.70;99.90;;;;;;4951666;29;20111;-87
2021/12/05 15:11:47;;;;;;;3.10;1.10;;;4.70;99.90;;;;;;4951497;29;20027;-87
2021/12/05 15:14:12;;;;;;;2.75;1.20;;;4.70;99.90;;;;;;4951446;29;20047;-87
2021/12/05 15:17:22;;;;;;;3.95;0.77;;;4.70;99.90;;;;;;4951434;29;20035;-87
2021/12/05 15:19:51;;;;;;;2.17;1.00;;;4.70;99.90;;;;;;4940477;29;20451;-87
2021/12/05 15:22:18;;;;;;;3.40;0.73;;;4.60;99.90;;;;;;4951398;29;20170;-87
2021/12/05 15:24:50;;;;;;;3.78;1.73;;;4.60;99.90;;;;;;4951390;29;20049;-87
2021/12/05 15:27:19;;;;;;;6.60;2.00;;;4.60;99.90;;;;;;4951203;29;20102;-87
2021/12/05 15:29:49;;;;;;;4.55;2.00;;;4.60;99.90;;;;;;4951685;29;20164;-87
2021/12/05 15:32:20;;;;;;;3.13;1.23;;;4.60;99.90;;;;;;4951707;29;20038;-87
2021/12/05 15:34:50;;;;;;;4.18;1.65;;;4.60;99.90;;;;;;4951153;29;20484;-87
2021/12/05 15:37:16;;;;;;;2.50;1.02;;;4.60;99.90;;;;;;4951577;29;20111;-87
2021/12/05 15:39:44;;;;;;;3.47;1.83;;;4.60;99.90;;;;;;4951509;29;20039;-87
2021/12/05 15:42:19;;;;;;;4.40;1.08;;;4.50;99.90;;;;;;4951256;29;20059;-87
2021/12/05 15:44:46;;;;;;;3.58;1.48;;;4.60;99.90;;;;;;4951116;29;20074;-87
2021/12/05 15:47:19;;;;;;;2.95;1.55;;;4.60;99.90;;;;;;4951152;29;20035;-87
2021/12/05 15:50:02;;;;;;;4.55;2.33;;;4.60;99.90;;;;;;4951076;29;20039;-87
2021/12/05 15:52:40;;;;;;;4.82;2.40;;;4.60;99.90;;;;;;4950869;29;20035;-87
2021/12/05 15:55:12;;;;;;;6.53;2.63;;;4.50;99.90;;;;;;4966827;29;20051;-87
2021/12/05 15:57:43;;;;;;;4.40;2.67;;;4.50;99.90;;;;;;4950739;29;20035;-87
2021/12/05 16:00:32;;;;;;;;;;;4.50;99.90;;;;;;4951223;29;20081;-87
2021/12/05 16:03:01;;;;;;;3.67;2.28;;;4.50;99.90;;;;;;4932150;29;19910;-87
2021/12/05 16:05:27;;;;;;;5.50;3.60;;;4.50;99.90;;;;;;4950664;29;20091;-87
2021/12/05 16:08:16;;;;;;;6.55;4.20;;;4.50;99.90;;;;;;4950527;29;20050;-86
2021/12/05 16:10:45;;;;;;;4.65;2.92;;;4.50;99.90;;;;;;4997815;23;20054;-86
2021/12/05 16:13:22;;;;;;;3.92;2.45;;;4.50;99.90;;;;;;4986711;28;20448;-87
2021/12/05 16:15:50;;;;;;;3.53;3.03;;;4.40;99.90;;;;;;4985851;28;20116;-86
2021/12/05 16:18:16;;;;;;;4.60;2.63;;;4.40;99.90;;;;;;4986511;28;20034;-86
2021/12/05 16:20:55;;;;;;;6.82;3.15;;;4.40;99.90;;;;;;4970326;28;20043;-86
2021/12/05 16:23:26;;;;;;;5.90;3.42;;;4.40;99.90;;;;;;4967029;28;20035;-86
2021/12/05 16:26:11;;;;;;;7.38;3.55;;;4.40;99.90;;;;;;4982843;28;20035;-86
2021/12/05 16:28:43;;;;;;;7.15;3.95;;;4.40;99.90;;;;;;4983028;28;20053;-87
2021/12/05 16:31:14;;;;;;;5.68;3.30;;;4.40;99.90;;;;;;4983119;28;20039;-86
2021/12/05 16:33:45;;;;;;;6.13;3.70;;;4.40;99.90;;;;;;4978613;28;20040;-86
2021/12/05 16:36:12;;;;;;;7.10;4.22;;;4.40;99.90;;;;;;4986682;28;20035;-86
2021/12/05 16:38:44;;;;;;;5.70;3.30;;;4.40;99.90;;;;;;4986475;28;20019;-86
2021/12/05 16:41:26;;;;;;;6.35;3.72;;;4.40;99.90;;;;;;4967569;28;20041;-86
2021/12/05 16:44:12;;;;;;;6.05;4.03;;;4.40;99.90;;;;;;4972034;28;20088;-85
2021/12/05 16:46:57;;;;;;;5.88;4.03;;;4.40;99.90;;;;;;4987282;28;20476;-85
2021/12/05 16:49:35;;;;;;;9.10;4.32;;;4.40;99.90;;;;;;4989488;28;20066;-84
2021/12/05 16:52:19;;;;;;;8.07;4.60;;;4.40;99.90;;;;;;4937102;28;20106;-84
2021/12/05 16:54:55;;;;;;;7.32;4.60;;;4.40;99.90;;;;;;4972894;28;20031;-85
2021/12/05 16:57:39;;;;;;;9.95;5.28;;;4.40;99.90;;;;;;4991740;28;20039;-85
2021/12/05 17:00:17;;;;;;;7.63;4.72;;;4.40;99.90;;;;;;4974916;28;20101;-85
2021/12/05 17:02:45;;;;;;;7.53;4.60;;;4.40;99.90;;;;;;4990189;28;20533;-84
2021/12/05 17:05:23;;;;;;;8.50;4.97;;;4.40;99.90;;;;;;4990796;28;20058;-84
2021/12/05 17:08:14;;;;;;;10.32;5.32;;;4.40;99.90;;;;;;4991342;28;20034;-84
2021/12/05 17:13:34;;;;;;;10.60;6.03;;;4.40;99.90;;;;;;5036973;23;20078;-85
2021/12/05 17:16:13;;;;;;;12.02;6.72;;;4.40;99.90;;;;;;5049203;28;20033;-85
2021/12/05 17:18:57;;;;;;;8.10;5.38;;;4.40;99.90;;;;;;5049913;28;20033;-85
2021/12/05 17:21:49;;;;;;;11.38;5.78;;;4.40;99.90;;;;;;5032727;28;20068;-86
2021/12/05 17:24:14;;;;;;;10.43;5.93;;;4.40;99.90;;;;;;5047530;28;20041;-85
2021/12/05 17:26:43;;;;;;;8.18;6.13;;;4.40;99.90;;;;;;5024535;28;20038;-85
2021/12/05 17:29:21;;;;;;;8.80;5.40;;;4.40;99.90;;;;;;5022483;28;20109;-86
2021/12/05 17:32:04;;;;;;;9.30;5.18;;;4.40;99.90;;;;;;5030133;28;20032;-85
2021/12/05 17:34:36;;;;;;;9.98;5.85;;;4.40;99.90;;;;;;5042019;28;20037;-86
2021/12/05 17:37:08;;;;;;;12.82;6.93;;;4.40;99.90;;;;;;5029328;28;20030;-85
2021/12/05 17:39:38;;;;;;;9.52;6.60;;;4.40;99.90;;;;;;5030184;28;20052;-85
2021/12/05 17:42:07;;;;;;;12.05;7.07;;;4.30;99.90;;;;;;5024602;28;20065;-85
2021/12/05 17:44:34;;;;;;;10.40;6.63;;;4.40;99.90;;;;;;5044793;28;20025;-85
2021/12/05 17:47:03;;;;;;;11.55;7.10;;;4.30;99.90;;;;;;5045193;28;20104;-86
2021/12/05 17:49:32;;;;;;;9.38;6.38;;;4.40;99.90;;;;;;5029326;28;20033;-85
2021/12/05 17:51:59;;;;;;;11.38;6.75;;;4.40;99.90;;;;;;5019355;28;20050;-85
2021/12/05 17:55:16;;;;;;;11.52;6.30;;;4.40;99.90;;;;;;5049767;28;20061;-84
2021/12/05 17:57:21;;;;;;;8.60;5.50;;;4.40;99.90;;;;;;5043142;28;20037;-84
2021/12/05 18:05:07;;;;;;;11.32;7.53;;;4.40;99.90;;;;;;5045451;28;20022;-84
2021/12/05 18:07:34;;;;;;;10.60;6.57;;;4.40;99.90;;;;;;5035795;28;20044;-85
2021/12/05 18:10:02;;;;;;;11.68;7.63;;;4.40;99.90;;;;;;5034875;28;20105;-84
2021/12/05 18:12:35;;;;;;;11.30;6.75;;;4.40;99.90;;;;;;5051243;28;20042;-85
2021/12/05 18:15:04;;;;;;;10.43;6.97;;;4.40;99.90;;;;;;5051479;28;20049;-85
2021/12/05 18:17:30;;;;;;;11.43;7.20;;;4.30;99.90;;;;;;5035036;28;20029;-87
2021/12/05 18:19:58;;;;;;;10.57;7.05;;;4.40;99.90;;;;;;5033016;28;20095;-85